sensor_id;sensor_type;location;lat;lon;timestamp;temperature;humidity
62581;DHT22;48640;48.770;9.148;2023-02-28T00:00:50;-0.20;65.60
62581;DHT22;48640;48.770;9.148;2023-02-28T00:03:17;-0.20;66.10
62581;DHT22;48640;48.770;9.148;2023-02-28T00:05:44;-0.20;66.30
62581;DHT22;48640;48.770;9.148;2023-02-28T00:08:11;-0.30;66.60
62581;DHT22;48640;48.770;9.148;2023-02-28T00:10:38;-0.20;66.70
62581;DHT22;48640;48.770;9.148;2023-02-28T00:13:06;-0.20;66.80
62581;DHT22;48640;48.770;9.148;2023-02-28T00:15:34;-0.20;66.90
62581;DHT22;48640;48.770;9.148;2023-02-28T00:18:02;-0.20;67.00
62581;DHT22;48640;48.770;9.148;2023-02-28T00:20:28;-0.10;66.70
62581;DHT22;48640;48.770;9.148;2023-02-28T00:22:56;-0.10;66.30
62581;DHT22;48640;48.770;9.148;2023-02-28T00:25:24;-0.20;66.40
62581;DHT22;48640;48.770;9.148;2023-02-28T00:27:51;-0.20;66.70
62581;DHT22;48640;48.770;9.148;2023-02-28T00:30:19;-0.10;66.50
62581;DHT22;48640;48.770;9.148;2023-02-28T00:32:47;-0.10;66.70
62581;DHT22;48640;48.770;9.148;2023-02-28T00:35:15;0.00;66.50
62581;DHT22;48640;48.770;9.148;2023-02-28T00:37:42;-0.20;66.70
62581;DHT22;48640;48.770;9.148;2023-02-28T00:40:10;-0.30;67.30
62581;DHT22;48640;48.770;9.148;2023-02-28T00:42:37;-0.40;67.90
62581;DHT22;48640;48.770;9.148;2023-02-28T00:45:05;-0.40;68.30
62581;DHT22;48640;48.770;9.148;2023-02-28T00:47:33;-0.40;68.80
62581;DHT22;48640;48.770;9.148;2023-02-28T00:50:01;-0.50;69.00
62581;DHT22;48640;48.770;9.148;2023-02-28T00:52:28;-0.30;69.30
62581;DHT22;48640;48.770;9.148;2023-02-28T00:54:55;-0.30;69.00
62581;DHT22;48640;48.770;9.148;2023-02-28T00:57:22;-0.50;69.30
62581;DHT22;48640;48.770;9.148;2023-02-28T00:59:49;-0.40;69.70
62581;DHT22;48640;48.770;9.148;2023-02-28T01:02:16;-0.40;69.90
62581;DHT22;48640;48.770;9.148;2023-02-28T01:04:43;-0.40;70.20
62581;DHT22;48640;48.770;9.148;2023-02-28T01:07:11;-0.40;70.20
62581;DHT22;48640;48.770;9.148;2023-02-28T01:09:39;-0.40;70.40
62581;DHT22;48640;48.770;9.148;2023-02-28T01:12:06;-0.40;70.60
62581;DHT22;48640;48.770;9.148;2023-02-28T01:14:34;-0.50;70.90
62581;DHT22;48640;48.770;9.148;2023-02-28T01:17:01;-0.50;71.50
62581;DHT22;48640;48.770;9.148;2023-02-28T01:19:28;-0.50;71.40
62581;DHT22;48640;48.770;9.148;2023-02-28T01:21:54;-0.50;71.50
62581;DHT22;48640;48.770;9.148;2023-02-28T01:24:22;-0.50;71.90
62581;DHT22;48640;48.770;9.148;2023-02-28T01:26:49;-0.30;72.50
62581;DHT22;48640;48.770;9.148;2023-02-28T01:29:16;-0.40;71.90
62581;DHT22;48640;48.770;9.148;2023-02-28T01:31:43;-0.30;72.20
62581;DHT22;48640;48.770;9.148;2023-02-28T01:34:09;-0.30;72.20
62581;DHT22;48640;48.770;9.148;2023-02-28T01:36:36;-0.30;72.10
62581;DHT22;48640;48.770;9.148;2023-02-28T01:39:03;-0.40;72.40
62581;DHT22;48640;48.770;9.148;2023-02-28T01:41:34;-0.40;72.90
62581;DHT22;48640;48.770;9.148;2023-02-28T01:44:02;-0.60;73.70
62581;DHT22;48640;48.770;9.148;2023-02-28T01:46:30;-0.70;74.60
62581;DHT22;48640;48.770;9.148;2023-02-28T01:49:02;-0.60;75.50
62581;DHT22;48640;48.770;9.148;2023-02-28T01:51:33;-0.60;75.30
62581;DHT22;48640;48.770;9.148;2023-02-28T01:54:03;-0.70;75.60
62581;DHT22;48640;48.770;9.148;2023-02-28T01:56:35;-0.50;76.00
62581;DHT22;48640;48.770;9.148;2023-02-28T01:59:03;-0.40;76.00
62581;DHT22;48640;48.770;9.148;2023-02-28T02:01:30;-0.40;75.70
62581;DHT22;48640;48.770;9.148;2023-02-28T02:04:00;-0.50;76.20
62581;DHT22;48640;48.770;9.148;2023-02-28T02:06:33;-0.50;76.30
62581;DHT22;48640;48.770;9.148;2023-02-28T02:09:00;-0.50;76.60
62581;DHT22;48640;48.770;9.148;2023-02-28T02:11:28;-0.40;76.80
62581;DHT22;48640;48.770;9.148;2023-02-28T02:14:13;-0.40;76.70
62581;DHT22;48640;48.770;9.148;2023-02-28T02:16:52;-0.40;77.00
62581;DHT22;48640;48.770;9.148;2023-02-28T02:19:46;-0.60;77.50
62581;DHT22;48640;48.770;9.148;2023-02-28T02:22:37;-0.50;78.40
62581;DHT22;48640;48.770;9.148;2023-02-28T02:25:22;-0.60;78.70
62581;DHT22;48640;48.770;9.148;2023-02-28T02:28:26;-0.70;79.50
62581;DHT22;48640;48.770;9.148;2023-02-28T02:31:20;-0.70;79.90
62581;DHT22;48640;48.770;9.148;2023-02-28T02:34:17;-0.70;80.20
62581;DHT22;48640;48.770;9.148;2023-02-28T02:36:51;-0.60;80.70
62581;DHT22;48640;48.770;9.148;2023-02-28T02:39:27;-0.50;80.70
62581;DHT22;48640;48.770;9.148;2023-02-28T02:41:58;-0.40;80.00
62581;DHT22;48640;48.770;9.148;2023-02-28T02:44:28;-0.30;79.60
62581;DHT22;48640;48.770;9.148;2023-02-28T02:47:01;-0.50;79.70
62581;DHT22;48640;48.770;9.148;2023-02-28T02:49:32;-0.40;81.10
62581;DHT22;48640;48.770;9.148;2023-02-28T02:52:03;-0.50;80.30
62581;DHT22;48640;48.770;9.148;2023-02-28T02:54:33;-0.70;81.50
62581;DHT22;48640;48.770;9.148;2023-02-28T02:57:05;-0.70;82.00
62581;DHT22;48640;48.770;9.148;2023-02-28T02:59:35;-0.70;82.80
62581;DHT22;48640;48.770;9.148;2023-02-28T03:02:05;-0.70;83.30
62581;DHT22;48640;48.770;9.148;2023-02-28T03:04:40;-0.70;84.50
62581;DHT22;48640;48.770;9.148;2023-02-28T03:07:08;-0.70;83.90
62581;DHT22;48640;48.770;9.148;2023-02-28T03:09:35;-0.70;84.00
62581;DHT22;48640;48.770;9.148;2023-02-28T03:12:03;-0.60;83.90
62581;DHT22;48640;48.770;9.148;2023-02-28T03:14:35;-0.60;83.90
62581;DHT22;48640;48.770;9.148;2023-02-28T03:17:28;-0.50;83.90
62581;DHT22;48640;48.770;9.148;2023-02-28T03:20:07;-0.60;84.10
62581;DHT22;48640;48.770;9.148;2023-02-28T03:22:49;-0.70;84.70
62581;DHT22;48640;48.770;9.148;2023-02-28T03:25:22;-0.60;85.20
62581;DHT22;48640;48.770;9.148;2023-02-28T03:28:00;-0.50;85.20
62581;DHT22;48640;48.770;9.148;2023-02-28T03:30:32;-0.40;84.80
62581;DHT22;48640;48.770;9.148;2023-02-28T03:33:03;-0.20;84.40
62581;DHT22;48640;48.770;9.148;2023-02-28T03:35:37;-0.10;84.10
62581;DHT22;48640;48.770;9.148;2023-02-28T03:38:08;-0.10;83.80
62581;DHT22;48640;48.770;9.148;2023-02-28T03:40:43;0.00;83.40
62581;DHT22;48640;48.770;9.148;2023-02-28T03:43:15;0.00;83.30
62581;DHT22;48640;48.770;9.148;2023-02-28T03:45:45;-0.20;83.60
62581;DHT22;48640;48.770;9.148;2023-02-28T03:48:16;-0.30;84.30
62581;DHT22;48640;48.770;9.148;2023-02-28T03:50:49;-0.40;85.30
62581;DHT22;48640;48.770;9.148;2023-02-28T03:53:22;-0.50;85.60
62581;DHT22;48640;48.770;9.148;2023-02-28T03:55:55;-0.50;86.10
62581;DHT22;48640;48.770;9.148;2023-02-28T03:58:28;-0.50;86.40
62581;DHT22;48640;48.770;9.148;2023-02-28T04:01:00;-0.40;86.70
62581;DHT22;48640;48.770;9.148;2023-02-28T04:03:34;-0.50;86.40
62581;DHT22;48640;48.770;9.148;2023-02-28T04:06:04;-0.40;86.70
62581;DHT22;48640;48.770;9.148;2023-02-28T04:08:32;-0.40;87.00
62581;DHT22;48640;48.770;9.148;2023-02-28T04:11:03;-0.40;86.90
62581;DHT22;48640;48.770;9.148;2023-02-28T04:13:31;-0.40;87.40
62581;DHT22;48640;48.770;9.148;2023-02-28T04:15:58;-0.40;86.70
62581;DHT22;48640;48.770;9.148;2023-02-28T04:18:25;-0.50;87.00
62581;DHT22;48640;48.770;9.148;2023-02-28T04:20:51;-0.40;87.50
62581;DHT22;48640;48.770;9.148;2023-02-28T04:23:19;-0.40;87.60
62581;DHT22;48640;48.770;9.148;2023-02-28T04:25:46;-0.30;87.20
62581;DHT22;48640;48.770;9.148;2023-02-28T04:28:13;-0.10;86.60
62581;DHT22;48640;48.770;9.148;2023-02-28T04:30:40;-0.10;86.50
62581;DHT22;48640;48.770;9.148;2023-02-28T04:33:06;-0.20;86.30
62581;DHT22;48640;48.770;9.148;2023-02-28T04:35:33;0.00;86.30
62581;DHT22;48640;48.770;9.148;2023-02-28T04:38:00;0.10;85.70
62581;DHT22;48640;48.770;9.148;2023-02-28T04:40:28;-0.10;85.10
62581;DHT22;48640;48.770;9.148;2023-02-28T04:42:55;-0.10;85.70
62581;DHT22;48640;48.770;9.148;2023-02-28T04:45:21;-0.10;85.70
62581;DHT22;48640;48.770;9.148;2023-02-28T04:47:48;-0.10;85.70
62581;DHT22;48640;48.770;9.148;2023-02-28T04:50:15;-0.10;86.00
62581;DHT22;48640;48.770;9.148;2023-02-28T04:52:42;-0.10;85.90
62581;DHT22;48640;48.770;9.148;2023-02-28T04:55:09;-0.10;86.50
62581;DHT22;48640;48.770;9.148;2023-02-28T04:57:37;-0.10;86.60
62581;DHT22;48640;48.770;9.148;2023-02-28T05:00:05;-0.10;86.40
62581;DHT22;48640;48.770;9.148;2023-02-28T05:02:37;-0.10;86.80
62581;DHT22;48640;48.770;9.148;2023-02-28T05:05:04;0.00;86.50
62581;DHT22;48640;48.770;9.148;2023-02-28T05:07:31;0.00;86.80
62581;DHT22;48640;48.770;9.148;2023-02-28T05:09:57;0.10;86.70
62581;DHT22;48640;48.770;9.148;2023-02-28T05:12:24;0.10;86.20
62581;DHT22;48640;48.770;9.148;2023-02-28T05:14:52;-0.10;86.50
62581;DHT22;48640;48.770;9.148;2023-02-28T05:17:19;-0.10;87.10
62581;DHT22;48640;48.770;9.148;2023-02-28T05:19:46;-0.10;87.10
62581;DHT22;48640;48.770;9.148;2023-02-28T05:22:14;-0.20;87.20
62581;DHT22;48640;48.770;9.148;2023-02-28T05:24:42;-0.10;88.00
62581;DHT22;48640;48.770;9.148;2023-02-28T05:27:09;-0.10;87.30
62581;DHT22;48640;48.770;9.148;2023-02-28T05:29:35;0.10;87.10
62581;DHT22;48640;48.770;9.148;2023-02-28T05:32:09;0.00;86.80
62581;DHT22;48640;48.770;9.148;2023-02-28T05:34:36;-0.10;87.00
62581;DHT22;48640;48.770;9.148;2023-02-28T05:37:03;-0.30;87.50
62581;DHT22;48640;48.770;9.148;2023-02-28T05:39:30;-0.20;88.20
62581;DHT22;48640;48.770;9.148;2023-02-28T05:41:57;-0.10;88.30
62581;DHT22;48640;48.770;9.148;2023-02-28T05:44:24;-0.10;88.00
62581;DHT22;48640;48.770;9.148;2023-02-28T05:46:50;0.10;88.40
62581;DHT22;48640;48.770;9.148;2023-02-28T05:49:19;0.10;87.70
62581;DHT22;48640;48.770;9.148;2023-02-28T05:51:45;0.00;87.80
62581;DHT22;48640;48.770;9.148;2023-02-28T05:54:12;-0.10;87.90
62581;DHT22;48640;48.770;9.148;2023-02-28T05:56:39;-0.10;88.20
62581;DHT22;48640;48.770;9.148;2023-02-28T05:59:09;-0.20;88.90
62581;DHT22;48640;48.770;9.148;2023-02-28T06:01:38;-0.20;89.20
62581;DHT22;48640;48.770;9.148;2023-02-28T06:04:07;0.00;89.20
62581;DHT22;48640;48.770;9.148;2023-02-28T06:06:35;0.10;88.80
62581;DHT22;48640;48.770;9.148;2023-02-28T06:09:03;0.30;88.50
62581;DHT22;48640;48.770;9.148;2023-02-28T06:11:30;0.30;88.10
62581;DHT22;48640;48.770;9.148;2023-02-28T06:13:57;0.20;87.60
62581;DHT22;48640;48.770;9.148;2023-02-28T06:16:25;0.00;87.90
62581;DHT22;48640;48.770;9.148;2023-02-28T06:18:52;-0.10;88.90
62581;DHT22;48640;48.770;9.148;2023-02-28T06:21:21;-0.10;89.20
62581;DHT22;48640;48.770;9.148;2023-02-28T06:23:49;-0.20;89.30
62581;DHT22;48640;48.770;9.148;2023-02-28T06:26:16;-0.20;90.00
62581;DHT22;48640;48.770;9.148;2023-02-28T06:28:43;-0.10;90.10
62581;DHT22;48640;48.770;9.148;2023-02-28T06:31:12;-0.10;89.80
62581;DHT22;48640;48.770;9.148;2023-02-28T06:33:40;0.10;89.80
62581;DHT22;48640;48.770;9.148;2023-02-28T06:36:09;0.30;90.10
62581;DHT22;48640;48.770;9.148;2023-02-28T06:38:37;0.20;88.60
62581;DHT22;48640;48.770;9.148;2023-02-28T06:41:05;0.20;88.50
62581;DHT22;48640;48.770;9.148;2023-02-28T06:43:35;0.20;88.60
62581;DHT22;48640;48.770;9.148;2023-02-28T06:46:04;0.10;88.40
62581;DHT22;48640;48.770;9.148;2023-02-28T06:48:31;0.00;88.80
62581;DHT22;48640;48.770;9.148;2023-02-28T06:51:03;0.00;88.90
62581;DHT22;48640;48.770;9.148;2023-02-28T06:53:30;0.10;89.10
62581;DHT22;48640;48.770;9.148;2023-02-28T06:55:56;0.20;89.50
62581;DHT22;48640;48.770;9.148;2023-02-28T06:58:25;0.40;88.30
62581;DHT22;48640;48.770;9.148;2023-02-28T07:00:52;0.40;87.20
62581;DHT22;48640;48.770;9.148;2023-02-28T07:03:19;0.30;86.90
62581;DHT22;48640;48.770;9.148;2023-02-28T07:05:46;0.30;86.90
62581;DHT22;48640;48.770;9.148;2023-02-28T07:08:13;0.30;87.00
62581;DHT22;48640;48.770;9.148;2023-02-28T07:10:40;0.20;87.40
62581;DHT22;48640;48.770;9.148;2023-02-28T07:13:08;0.10;87.50
62581;DHT22;48640;48.770;9.148;2023-02-28T07:15:37;0.20;87.90
62581;DHT22;48640;48.770;9.148;2023-02-28T07:18:04;0.30;87.60
62581;DHT22;48640;48.770;9.148;2023-02-28T07:20:31;0.40;86.90
62581;DHT22;48640;48.770;9.148;2023-02-28T07:22:58;0.50;86.60
62581;DHT22;48640;48.770;9.148;2023-02-28T07:25:26;0.50;86.10
62581;DHT22;48640;48.770;9.148;2023-02-28T07:27:54;0.40;86.30
62581;DHT22;48640;48.770;9.148;2023-02-28T07:30:21;0.50;86.80
62581;DHT22;48640;48.770;9.148;2023-02-28T07:32:49;0.40;85.60
62581;DHT22;48640;48.770;9.148;2023-02-28T07:35:16;0.30;86.30
62581;DHT22;48640;48.770;9.148;2023-02-28T07:37:43;0.40;86.80
62581;DHT22;48640;48.770;9.148;2023-02-28T07:40:11;0.60;86.20
62581;DHT22;48640;48.770;9.148;2023-02-28T07:42:38;0.40;85.80
62581;DHT22;48640;48.770;9.148;2023-02-28T07:45:07;0.30;86.30
62581;DHT22;48640;48.770;9.148;2023-02-28T07:47:36;0.40;86.50
62581;DHT22;48640;48.770;9.148;2023-02-28T07:50:05;0.50;87.00
62581;DHT22;48640;48.770;9.148;2023-02-28T07:52:32;0.60;86.50
62581;DHT22;48640;48.770;9.148;2023-02-28T07:54:59;0.80;85.60
62581;DHT22;48640;48.770;9.148;2023-02-28T07:57:25;0.60;84.80
62581;DHT22;48640;48.770;9.148;2023-02-28T07:59:52;0.40;85.10
62581;DHT22;48640;48.770;9.148;2023-02-28T08:02:19;0.50;86.10
62581;DHT22;48640;48.770;9.148;2023-02-28T08:04:46;0.60;84.60
62581;DHT22;48640;48.770;9.148;2023-02-28T08:07:15;0.70;84.30
62581;DHT22;48640;48.770;9.148;2023-02-28T08:09:42;0.70;83.60
62581;DHT22;48640;48.770;9.148;2023-02-28T08:12:10;0.60;82.60
62581;DHT22;48640;48.770;9.148;2023-02-28T08:14:38;0.60;82.20
62581;DHT22;48640;48.770;9.148;2023-02-28T08:17:05;0.50;82.30
62581;DHT22;48640;48.770;9.148;2023-02-28T08:19:32;0.50;82.70
62581;DHT22;48640;48.770;9.148;2023-02-28T08:21:59;0.50;82.50
62581;DHT22;48640;48.770;9.148;2023-02-28T08:24:27;0.60;82.80
62581;DHT22;48640;48.770;9.148;2023-02-28T08:26:54;0.80;82.40
62581;DHT22;48640;48.770;9.148;2023-02-28T08:29:21;0.80;81.50
62581;DHT22;48640;48.770;9.148;2023-02-28T08:31:47;0.60;81.50
62581;DHT22;48640;48.770;9.148;2023-02-28T08:34:15;0.70;82.00
62581;DHT22;48640;48.770;9.148;2023-02-28T08:36:42;0.80;81.40
62581;DHT22;48640;48.770;9.148;2023-02-28T08:39:10;0.70;81.00
62581;DHT22;48640;48.770;9.148;2023-02-28T08:41:38;0.70;81.30
62581;DHT22;48640;48.770;9.148;2023-02-28T08:44:06;0.60;81.10
62581;DHT22;48640;48.770;9.148;2023-02-28T08:46:33;0.70;81.60
62581;DHT22;48640;48.770;9.148;2023-02-28T08:49:00;0.70;81.10
62581;DHT22;48640;48.770;9.148;2023-02-28T08:51:28;0.80;80.80
62581;DHT22;48640;48.770;9.148;2023-02-28T08:53:57;0.90;80.90
62581;DHT22;48640;48.770;9.148;2023-02-28T08:56:25;0.90;80.20
62581;DHT22;48640;48.770;9.148;2023-02-28T08:58:55;0.70;80.90
62581;DHT22;48640;48.770;9.148;2023-02-28T09:01:25;0.80;81.10
62581;DHT22;48640;48.770;9.148;2023-02-28T09:03:54;0.80;80.90
62581;DHT22;48640;48.770;9.148;2023-02-28T09:06:23;1.00;81.20
62581;DHT22;48640;48.770;9.148;2023-02-28T09:08:50;1.00;80.20
62581;DHT22;48640;48.770;9.148;2023-02-28T09:11:17;1.10;80.30
62581;DHT22;48640;48.770;9.148;2023-02-28T09:13:44;1.30;79.80
62581;DHT22;48640;48.770;9.148;2023-02-28T09:16:14;1.30;78.80
62581;DHT22;48640;48.770;9.148;2023-02-28T09:18:41;1.30;77.90
62581;DHT22;48640;48.770;9.148;2023-02-28T09:21:12;1.20;78.90
62581;DHT22;48640;48.770;9.148;2023-02-28T09:23:40;1.20;78.40
62581;DHT22;48640;48.770;9.148;2023-02-28T09:26:08;1.20;78.60
62581;DHT22;48640;48.770;9.148;2023-02-28T09:28:39;1.30;78.40
62581;DHT22;48640;48.770;9.148;2023-02-28T09:31:10;1.50;78.10
62581;DHT22;48640;48.770;9.148;2023-02-28T09:33:40;1.50;77.90
62581;DHT22;48640;48.770;9.148;2023-02-28T09:36:07;1.50;77.60
62581;DHT22;48640;48.770;9.148;2023-02-28T09:38:35;1.30;77.50
62581;DHT22;48640;48.770;9.148;2023-02-28T09:41:08;1.40;78.10
62581;DHT22;48640;48.770;9.148;2023-02-28T09:43:39;1.40;77.80
62581;DHT22;48640;48.770;9.148;2023-02-28T09:46:16;1.50;78.10
62581;DHT22;48640;48.770;9.148;2023-02-28T09:48:48;1.60;77.80
62581;DHT22;48640;48.770;9.148;2023-02-28T09:51:25;1.70;76.50
62581;DHT22;48640;48.770;9.148;2023-02-28T09:53:53;1.50;76.60
62581;DHT22;48640;48.770;9.148;2023-02-28T09:56:22;1.30;76.90
62581;DHT22;48640;48.770;9.148;2023-02-28T09:58:56;1.30;77.40
62581;DHT22;48640;48.770;9.148;2023-02-28T10:01:29;1.60;78.80
62581;DHT22;48640;48.770;9.148;2023-02-28T10:04:02;1.80;76.70
62581;DHT22;48640;48.770;9.148;2023-02-28T10:06:35;1.70;75.70
62581;DHT22;48640;48.770;9.148;2023-02-28T10:09:05;1.70;76.50
62581;DHT22;48640;48.770;9.148;2023-02-28T10:11:37;1.70;76.00
62581;DHT22;48640;48.770;9.148;2023-02-28T10:14:06;1.80;75.70
62581;DHT22;48640;48.770;9.148;2023-02-28T10:16:40;1.90;75.50
62581;DHT22;48640;48.770;9.148;2023-02-28T10:19:16;1.90;75.20
62581;DHT22;48640;48.770;9.148;2023-02-28T10:21:48;1.90;75.30
62581;DHT22;48640;48.770;9.148;2023-02-28T10:24:21;1.90;74.90
62581;DHT22;48640;48.770;9.148;2023-02-28T10:26:52;1.90;74.60
62581;DHT22;48640;48.770;9.148;2023-02-28T10:29:20;1.80;74.80
62581;DHT22;48640;48.770;9.148;2023-02-28T10:31:47;1.90;75.00
62581;DHT22;48640;48.770;9.148;2023-02-28T10:34:15;1.90;74.50
62581;DHT22;48640;48.770;9.148;2023-02-28T10:36:41;2.00;74.60
62581;DHT22;48640;48.770;9.148;2023-02-28T10:39:33;2.00;74.00
62581;DHT22;48640;48.770;9.148;2023-02-28T10:42:00;2.00;74.00
62581;DHT22;48640;48.770;9.148;2023-02-28T10:44:27;2.30;73.50
62581;DHT22;48640;48.770;9.148;2023-02-28T10:46:54;2.60;73.20
62581;DHT22;48640;48.770;9.148;2023-02-28T10:49:25;2.70;72.50
62581;DHT22;48640;48.770;9.148;2023-02-28T10:51:54;2.70;72.10
62581;DHT22;48640;48.770;9.148;2023-02-28T10:54:24;2.70;71.50
62581;DHT22;48640;48.770;9.148;2023-02-28T10:57:08;2.80;71.90
62581;DHT22;48640;48.770;9.148;2023-02-28T10:59:35;3.00;70.90
62581;DHT22;48640;48.770;9.148;2023-02-28T11:02:30;2.80;70.20
62581;DHT22;48640;48.770;9.148;2023-02-28T11:04:58;2.60;70.50
62581;DHT22;48640;48.770;9.148;2023-02-28T11:07:27;2.70;70.80
62581;DHT22;48640;48.770;9.148;2023-02-28T11:09:55;2.80;71.50
62581;DHT22;48640;48.770;9.148;2023-02-28T11:12:25;2.90;71.20
62581;DHT22;48640;48.770;9.148;2023-02-28T11:14:55;3.40;71.30
62581;DHT22;48640;48.770;9.148;2023-02-28T11:17:24;3.40;68.80
62581;DHT22;48640;48.770;9.148;2023-02-28T11:19:55;3.40;69.20
62581;DHT22;48640;48.770;9.148;2023-02-28T11:22:26;3.50;68.60
62581;DHT22;48640;48.770;9.148;2023-02-28T11:24:56;3.60;67.40
62581;DHT22;48640;48.770;9.148;2023-02-28T11:27:44;3.80;67.10
62581;DHT22;48640;48.770;9.148;2023-02-28T11:30:31;4.80;65.00
62581;DHT22;48640;48.770;9.148;2023-02-28T11:32:59;5.20;61.70
62581;DHT22;48640;48.770;9.148;2023-02-28T11:35:30;4.80;60.30
62581;DHT22;48640;48.770;9.148;2023-02-28T11:37:59;3.90;62.20
62581;DHT22;48640;48.770;9.148;2023-02-28T11:40:31;3.80;64.80
62581;DHT22;48640;48.770;9.148;2023-02-28T11:43:08;4.00;64.90
62581;DHT22;48640;48.770;9.148;2023-02-28T11:45:45;4.10;63.50
62581;DHT22;48640;48.770;9.148;2023-02-28T11:48:19;3.90;63.90
62581;DHT22;48640;48.770;9.148;2023-02-28T11:50:59;3.80;63.90
62581;DHT22;48640;48.770;9.148;2023-02-28T11:53:48;3.60;64.90
62581;DHT22;48640;48.770;9.148;2023-02-28T11:56:23;3.30;65.80
62581;DHT22;48640;48.770;9.148;2023-02-28T11:59:03;3.10;66.80
62581;DHT22;48640;48.770;9.148;2023-02-28T12:01:42;3.60;66.70
62581;DHT22;48640;48.770;9.148;2023-02-28T12:04:21;3.60;65.80
62581;DHT22;48640;48.770;9.148;2023-02-28T12:06:56;3.70;65.70
62581;DHT22;48640;48.770;9.148;2023-02-28T12:09:43;4.00;65.80
62581;DHT22;48640;48.770;9.148;2023-02-28T12:12:21;4.40;63.60
62581;DHT22;48640;48.770;9.148;2023-02-28T12:18:05;4.90;63.50
62581;DHT22;48640;48.770;9.148;2023-02-28T12:20:43;4.30;61.60
62581;DHT22;48640;48.770;9.148;2023-02-28T12:23:40;4.10;63.60
62581;DHT22;48640;48.770;9.148;2023-02-28T12:26:16;4.20;62.50
62581;DHT22;48640;48.770;9.148;2023-02-28T12:28:47;4.30;63.10
62581;DHT22;48640;48.770;9.148;2023-02-28T12:31:19;4.70;62.00
62581;DHT22;48640;48.770;9.148;2023-02-28T12:33:51;4.70;61.10
62581;DHT22;48640;48.770;9.148;2023-02-28T12:36:20;4.80;60.90
62581;DHT22;48640;48.770;9.148;2023-02-28T12:38:53;4.80;60.90
62581;DHT22;48640;48.770;9.148;2023-02-28T12:41:29;4.70;61.80
62581;DHT22;48640;48.770;9.148;2023-02-28T12:44:01;5.20;61.00
62581;DHT22;48640;48.770;9.148;2023-02-28T12:46:32;5.30;59.80
62581;DHT22;48640;48.770;9.148;2023-02-28T12:49:00;5.20;59.50
62581;DHT22;48640;48.770;9.148;2023-02-28T12:51:28;5.10;59.50
62581;DHT22;48640;48.770;9.148;2023-02-28T12:54:06;5.10;59.60
62581;DHT22;48640;48.770;9.148;2023-02-28T12:56:41;5.20;59.20
62581;DHT22;48640;48.770;9.148;2023-02-28T12:59:16;4.90;59.10
62581;DHT22;48640;48.770;9.148;2023-02-28T13:02:00;4.80;60.30
62581;DHT22;48640;48.770;9.148;2023-02-28T13:05:01;4.70;60.00
62581;DHT22;48640;48.770;9.148;2023-02-28T13:07:54;5.10;60.90
62581;DHT22;48640;48.770;9.148;2023-02-28T13:10:24;5.20;60.00
62581;DHT22;48640;48.770;9.148;2023-02-28T13:13:05;5.50;59.50
62581;DHT22;48640;48.770;9.148;2023-02-28T13:15:32;5.40;59.00
62581;DHT22;48640;48.770;9.148;2023-02-28T13:18:03;5.30;58.80
62581;DHT22;48640;48.770;9.148;2023-02-28T13:20:35;5.50;59.40
62581;DHT22;48640;48.770;9.148;2023-02-28T13:23:02;5.70;58.30
62581;DHT22;48640;48.770;9.148;2023-02-28T13:25:52;5.70;58.20
62581;DHT22;48640;48.770;9.148;2023-02-28T13:34:41;6.00;57.20
62581;DHT22;48640;48.770;9.148;2023-02-28T13:37:41;6.30;56.50
62581;DHT22;48640;48.770;9.148;2023-02-28T13:40:27;5.80;56.80
62581;DHT22;48640;48.770;9.148;2023-02-28T13:42:55;6.20;57.80
62581;DHT22;48640;48.770;9.148;2023-02-28T13:45:27;5.90;56.80
62581;DHT22;48640;48.770;9.148;2023-02-28T13:47:59;5.60;57.40
62581;DHT22;48640;48.770;9.148;2023-02-28T13:50:33;5.80;58.20
62581;DHT22;48640;48.770;9.148;2023-02-28T13:53:28;6.10;57.80
62581;DHT22;48640;48.770;9.148;2023-02-28T13:56:03;5.90;57.00
62581;DHT22;48640;48.770;9.148;2023-02-28T13:58:41;5.80;57.40
62581;DHT22;48640;48.770;9.148;2023-02-28T14:01:41;6.00;57.20
62581;DHT22;48640;48.770;9.148;2023-02-28T14:07:05;6.10;56.70
62581;DHT22;48640;48.770;9.148;2023-02-28T14:09:34;5.90;56.50
62581;DHT22;48640;48.770;9.148;2023-02-28T14:15:03;6.20;56.10
62581;DHT22;48640;48.770;9.148;2023-02-28T14:17:31;5.90;56.50
62581;DHT22;48640;48.770;9.148;2023-02-28T14:19:58;5.70;56.60
62581;DHT22;48640;48.770;9.148;2023-02-28T14:22:50;5.70;56.90
62581;DHT22;48640;48.770;9.148;2023-02-28T14:25:24;5.70;57.40
62581;DHT22;48640;48.770;9.148;2023-02-28T14:28:06;5.80;57.20
62581;DHT22;48640;48.770;9.148;2023-02-28T14:30:56;5.90;56.90
62581;DHT22;48640;48.770;9.148;2023-02-28T14:33:27;5.90;57.30
62581;DHT22;48640;48.770;9.148;2023-02-28T14:36:17;5.90;56.40
62581;DHT22;48640;48.770;9.148;2023-02-28T14:38:50;5.80;56.90
62581;DHT22;48640;48.770;9.148;2023-02-28T14:41:23;5.60;56.70
62581;DHT22;48640;48.770;9.148;2023-02-28T14:43:54;5.70;57.30
62581;DHT22;48640;48.770;9.148;2023-02-28T14:46:23;5.80;57.20
62581;DHT22;48640;48.770;9.148;2023-02-28T14:48:52;5.90;57.00
62581;DHT22;48640;48.770;9.148;2023-02-28T14:51:21;5.90;56.30
62581;DHT22;48640;48.770;9.148;2023-02-28T14:53:52;5.60;56.40
62581;DHT22;48640;48.770;9.148;2023-02-28T14:56:24;5.70;57.10
62581;DHT22;48640;48.770;9.148;2023-02-28T14:58:54;5.70;57.00
62581;DHT22;48640;48.770;9.148;2023-02-28T15:01:23;5.60;56.90
62581;DHT22;48640;48.770;9.148;2023-02-28T15:03:58;5.50;57.20
62581;DHT22;48640;48.770;9.148;2023-02-28T15:06:25;5.40;57.40
62581;DHT22;48640;48.770;9.148;2023-02-28T15:11:55;5.40;57.60
62581;DHT22;48640;48.770;9.148;2023-02-28T15:14:22;5.30;57.40
62581;DHT22;48640;48.770;9.148;2023-02-28T15:16:52;5.40;58.00
62581;DHT22;48640;48.770;9.148;2023-02-28T15:19:24;5.30;57.80
62581;DHT22;48640;48.770;9.148;2023-02-28T15:21:55;5.30;58.00
62581;DHT22;48640;48.770;9.148;2023-02-28T15:24:30;5.30;58.40
62581;DHT22;48640;48.770;9.148;2023-02-28T15:27:02;5.40;58.50
62581;DHT22;48640;48.770;9.148;2023-02-28T15:29:47;5.50;58.70
62581;DHT22;48640;48.770;9.148;2023-02-28T15:32:27;5.50;57.90
62581;DHT22;48640;48.770;9.148;2023-02-28T15:34:55;5.60;58.00
62581;DHT22;48640;48.770;9.148;2023-02-28T15:37:28;5.50;57.90
62581;DHT22;48640;48.770;9.148;2023-02-28T15:39:56;5.50;58.20
62581;DHT22;48640;48.770;9.148;2023-02-28T15:42:28;5.40;58.40
62581;DHT22;48640;48.770;9.148;2023-02-28T15:44:57;5.40;58.70
62581;DHT22;48640;48.770;9.148;2023-02-28T15:47:27;5.60;58.80
62581;DHT22;48640;48.770;9.148;2023-02-28T15:49:56;5.50;58.60
62581;DHT22;48640;48.770;9.148;2023-02-28T15:52:38;5.50;59.50
62581;DHT22;48640;48.770;9.148;2023-02-28T15:55:11;5.50;58.70
62581;DHT22;48640;48.770;9.148;2023-02-28T15:57:43;5.40;58.60
62581;DHT22;48640;48.770;9.148;2023-02-28T16:00:13;5.30;58.60
62581;DHT22;48640;48.770;9.148;2023-02-28T16:02:40;5.20;59.00
62581;DHT22;48640;48.770;9.148;2023-02-28T16:05:28;5.20;59.20
62581;DHT22;48640;48.770;9.148;2023-02-28T16:07:58;5.20;59.30
62581;DHT22;48640;48.770;9.148;2023-02-28T16:10:27;5.20;59.30
62581;DHT22;48640;48.770;9.148;2023-02-28T16:12:56;5.10;59.50
62581;DHT22;48640;48.770;9.148;2023-02-28T16:15:26;5.00;59.70
62581;DHT22;48640;48.770;9.148;2023-02-28T16:17:55;5.00;59.80
62581;DHT22;48640;48.770;9.148;2023-02-28T16:20:24;4.90;60.00
62581;DHT22;48640;48.770;9.148;2023-02-28T16:22:51;4.90;60.20